createdAt,value
2022-12-11T00:02:29.568Z,100556.81
2022-12-11T00:04:56.856Z,100561.94
2022-12-11T00:07:23.885Z,100561.03
2022-12-11T00:09:52.819Z,100565.53
2022-12-11T00:12:19.788Z,100568.66
2022-12-11T00:14:47.447Z,100565.28
2022-12-11T00:17:14.179Z,100568.16
2022-12-11T00:19:41.393Z,100559.34
2022-12-11T00:22:08.151Z,100562.78
2022-12-11T00:24:35.283Z,100565.41
2022-12-11T00:27:02.422Z,100567.19
2022-12-11T00:29:30.545Z,100567.66
2022-12-11T00:31:57.610Z,100574.34
2022-12-11T00:34:24.532Z,100566.84
2022-12-11T00:36:59.321Z,100566.03
2022-12-11T00:39:26.118Z,100572.72
2022-12-11T00:41:52.806Z,100572.56
2022-12-11T00:44:19.648Z,100564.16
2022-12-11T00:46:46.739Z,100580.38
2022-12-11T00:49:14.047Z,100575.31
2022-12-11T00:51:44.918Z,100571.56
2022-12-11T00:54:12.045Z,100560.06
2022-12-11T00:56:39.981Z,100566.09
2022-12-11T00:59:07.078Z,100565.41
2022-12-11T01:01:34.193Z,100563.69
2022-12-11T01:04:01.363Z,100558.69
2022-12-11T01:06:28.967Z,100551.31
2022-12-11T01:09:16.520Z,100564.00
2022-12-11T01:11:43.876Z,100556.69
2022-12-11T01:14:11.913Z,100552.75
2022-12-11T01:16:39.045Z,100560.19
2022-12-11T01:19:06.279Z,100551.41
2022-12-11T01:21:33.513Z,100554.97
2022-12-11T01:24:00.885Z,100556.34
2022-12-11T01:26:27.932Z,100560.91
2022-12-11T01:28:54.814Z,100550.34
2022-12-11T01:31:22.403Z,100557.56
2022-12-11T01:33:49.728Z,100558.22
2022-12-11T01:36:22.291Z,100554.16
2022-12-11T01:38:50.137Z,100557.91
2022-12-11T01:41:18.625Z,100556.41
2022-12-11T01:43:59.276Z,100548.13
2022-12-11T01:46:27.054Z,100547.94
2022-12-11T01:48:55.390Z,100559.00
2022-12-11T01:51:23.397Z,100554.00
2022-12-11T01:53:55.180Z,100557.41
2022-12-11T01:56:22.282Z,100545.75
2022-12-11T01:58:57.357Z,100552.50
2022-12-11T02:01:57.413Z,100548.34
2022-12-11T02:04:24.882Z,100544.69
2022-12-11T02:06:53.033Z,100544.19
2022-12-11T02:09:26.545Z,100541.31
2022-12-11T02:12:00.605Z,100543.28
2022-12-11T02:14:47.592Z,100538.19
2022-12-11T02:17:25.375Z,100543.91
2022-12-11T02:20:01.476Z,100535.59
2022-12-11T02:22:47.838Z,100534.84
2022-12-11T02:25:14.564Z,100525.75
2022-12-11T02:27:41.379Z,100534.19
2022-12-11T02:30:10.948Z,100534.63
2022-12-11T02:32:54.001Z,100538.47
2022-12-11T02:35:32.974Z,100521.94
2022-12-11T02:38:04.004Z,100524.91
2022-12-11T02:40:33.160Z,100523.91
2022-12-11T02:43:03.722Z,100517.63
2022-12-11T02:45:31.514Z,100524.63
2022-12-11T02:48:01.506Z,100524.47
2022-12-11T02:50:29.463Z,100520.91
2022-12-11T02:52:57.091Z,100511.22
2022-12-11T02:55:26.416Z,100513.63
2022-12-11T02:58:08.908Z,100525.19
2022-12-11T03:00:36.379Z,100516.59
2022-12-11T03:03:03.473Z,100512.69
2022-12-11T03:05:30.906Z,100512.56
2022-12-11T03:08:00.496Z,100511.97
2022-12-11T03:10:30.011Z,100503.91
2022-12-11T03:12:58.402Z,100508.47
2022-12-11T03:15:40.248Z,100506.91
2022-12-11T03:18:21.351Z,100509.00
2022-12-11T03:20:57.800Z,100510.03
2022-12-11T03:23:47.759Z,100507.44
2022-12-11T03:26:15.866Z,100504.88
2022-12-11T03:28:55.548Z,100500.69
2022-12-11T03:31:43.399Z,100509.06
2022-12-11T03:34:16.993Z,100503.28
2022-12-11T03:36:44.068Z,100503.16
2022-12-11T03:39:18.878Z,100511.47
2022-12-11T03:41:46.710Z,100508.00
2022-12-11T03:44:14.125Z,100507.25
2022-12-11T03:46:41.289Z,100511.13
2022-12-11T03:49:21.276Z,100515.81
2022-12-11T03:51:50.574Z,100504.59
2022-12-11T03:54:18.051Z,100509.72
2022-12-11T03:56:46.019Z,100504.81
2022-12-11T03:59:12.853Z,100501.81
2022-12-11T04:01:39.625Z,100505.41
2022-12-11T04:04:06.265Z,100503.38
2022-12-11T04:06:33.048Z,100508.53
2022-12-11T04:08:59.626Z,100500.94
2022-12-11T04:11:35.295Z,100496.31
2022-12-11T04:14:32.202Z,100486.34
2022-12-11T04:17:00.310Z,100487.06
2022-12-11T04:19:46.006Z,100494.69
2022-12-11T04:22:32.925Z,100487.94
2022-12-11T04:25:00.801Z,100492.06
2022-12-11T04:27:45.920Z,100487.91
2022-12-11T04:30:22.032Z,100484.38
2022-12-11T04:32:49.236Z,100483.03
2022-12-11T04:35:16.443Z,100481.69
2022-12-11T04:37:43.413Z,100488.25
2022-12-11T04:40:13.009Z,100483.63
2022-12-11T04:42:39.646Z,100482.44
2022-12-11T04:45:08.455Z,100473.56
2022-12-11T04:47:36.509Z,100472.69
2022-12-11T04:50:05.484Z,100464.34
2022-12-11T04:52:32.456Z,100468.66
2022-12-11T04:54:59.185Z,100468.50
2022-12-11T04:57:25.898Z,100471.84
2022-12-11T04:59:52.630Z,100468.06
2022-12-11T05:02:19.297Z,100465.28
2022-12-11T05:04:45.980Z,100470.44
2022-12-11T05:07:12.683Z,100472.31
2022-12-11T05:09:39.456Z,100473.56
2022-12-11T05:12:06.144Z,100476.34
2022-12-11T05:14:32.929Z,100480.00
2022-12-11T05:16:59.796Z,100474.75
2022-12-11T05:19:27.506Z,100474.31
2022-12-11T05:21:54.461Z,100474.91
2022-12-11T05:24:21.633Z,100479.47
2022-12-11T05:26:48.315Z,100479.53
2022-12-11T05:29:14.899Z,100483.19
2022-12-11T05:31:41.652Z,100476.94
2022-12-11T05:34:08.400Z,100475.50
2022-12-11T05:36:35.101Z,100474.56
2022-12-11T05:39:02.215Z,100471.13
2022-12-11T05:41:30.615Z,100465.69
2022-12-11T05:43:57.396Z,100460.81
2022-12-11T05:46:26.594Z,100457.44
2022-12-11T05:48:59.287Z,100456.72
2022-12-11T05:51:26.074Z,100461.63
2022-12-11T05:53:53.266Z,100455.47
2022-12-11T05:56:23.444Z,100461.88
2022-12-11T05:58:50.951Z,100454.88
2022-12-11T06:01:20.040Z,100460.69
2022-12-11T06:03:46.957Z,100457.16
2022-12-11T06:06:13.642Z,100452.69
2022-12-11T06:08:43.623Z,100457.84
2022-12-11T06:11:17.324Z,100459.47
2022-12-11T06:13:47.939Z,100455.38
2022-12-11T06:16:16.660Z,100461.00
2022-12-11T06:18:45.056Z,100458.91
2022-12-11T06:21:14.822Z,100454.72
2022-12-11T06:23:42.043Z,100456.28
2022-12-11T06:26:09.603Z,100455.16
2022-12-11T06:28:37.010Z,100453.72
2022-12-11T06:31:04.052Z,100456.88
2022-12-11T06:33:30.868Z,100457.69
2022-12-11T06:36:05.043Z,100464.56
2022-12-11T06:38:32.150Z,100457.16
2022-12-11T06:41:02.657Z,100463.28
2022-12-11T06:43:29.452Z,100459.66
2022-12-11T06:46:02.114Z,100460.00
2022-12-11T06:48:31.736Z,100453.06
2022-12-11T06:50:58.564Z,100455.03
2022-12-11T06:53:25.594Z,100452.03
2022-12-11T06:55:52.455Z,100453.91
2022-12-11T06:58:19.179Z,100456.81
2022-12-11T07:00:46.118Z,100450.84
2022-12-11T07:03:13.775Z,100458.69
2022-12-11T07:05:40.635Z,100456.50
2022-12-11T07:08:08.016Z,100453.66
2022-12-11T07:10:35.241Z,100455.28
2022-12-11T07:13:02.293Z,100466.09
2022-12-11T07:15:29.185Z,100454.41
2022-12-11T07:17:55.989Z,100462.31
2022-12-11T07:20:22.995Z,100468.34
2022-12-11T07:22:50.660Z,100470.69
2022-12-11T07:25:17.657Z,100467.56
2022-12-11T07:27:44.419Z,100463.38
2022-12-11T07:30:11.979Z,100472.59
2022-12-11T07:32:38.900Z,100470.94
2022-12-11T07:35:06.934Z,100471.13
2022-12-11T07:37:40.530Z,100472.16
2022-12-11T07:40:08.161Z,100467.78
2022-12-11T07:42:35.165Z,100478.50
2022-12-11T07:45:01.956Z,100471.13
2022-12-11T07:47:28.639Z,100478.78
2022-12-11T07:49:55.305Z,100477.06
2022-12-11T07:52:22.038Z,100476.34
2022-12-11T07:54:48.816Z,100480.13
2022-12-11T07:57:15.522Z,100473.03
2022-12-11T07:59:42.223Z,100483.47
2022-12-11T08:02:12.184Z,100482.16
2022-12-11T08:04:39.290Z,100477.53
2022-12-11T08:07:06.080Z,100487.94
2022-12-11T08:09:32.759Z,100490.34
2022-12-11T08:11:59.539Z,100484.38
2022-12-11T08:14:26.180Z,100483.88
2022-12-11T08:16:52.999Z,100483.88
2022-12-11T08:19:19.801Z,100477.28
2022-12-11T08:21:48.832Z,100475.81
2022-12-11T08:24:20.373Z,100480.19
2022-12-11T08:26:48.305Z,100479.16
2022-12-11T08:29:15.342Z,100483.63
2022-12-11T08:31:42.451Z,100484.16
2022-12-11T08:34:09.226Z,100484.78
2022-12-11T08:36:35.945Z,100477.06
2022-12-11T08:39:02.603Z,100474.16
2022-12-11T08:41:30.272Z,100480.50
2022-12-11T08:43:58.638Z,100480.88
2022-12-11T08:46:28.896Z,100478.50
2022-12-11T08:48:56.236Z,100478.56
2022-12-11T08:51:25.133Z,100473.81
2022-12-11T08:53:54.998Z,100465.50
2022-12-11T08:56:23.667Z,100469.16
2022-12-11T08:58:50.967Z,100467.38
2022-12-11T09:01:23.361Z,100473.84
2022-12-11T09:03:51.733Z,100474.91
2022-12-11T09:06:23.435Z,100474.47
2022-12-11T09:08:52.884Z,100477.38
2022-12-11T09:11:23.502Z,100482.69
2022-12-11T09:13:50.759Z,100475.72
2022-12-11T09:16:23.154Z,100480.88
2022-12-11T09:18:51.579Z,100469.91
2022-12-11T09:21:21.345Z,100472.38
2022-12-11T09:23:48.513Z,100472.06
2022-12-11T09:26:18.045Z,100466.75
2022-12-11T09:28:46.947Z,100467.13
2022-12-11T09:31:23.625Z,100464.22
2022-12-11T09:33:57.889Z,100463.72
2022-12-11T09:36:27.199Z,100473.84
2022-12-11T09:38:57.114Z,100473.91
2022-12-11T09:41:36.637Z,100465.13
2022-12-11T09:44:32.984Z,100475.81
2022-12-11T09:47:00.260Z,100475.63
2022-12-11T09:49:45.343Z,100474.84
2022-12-11T09:52:53.409Z,100477.06
2022-12-11T09:55:25.679Z,100478.03
2022-12-11T09:58:20.626Z,100471.44
2022-12-11T10:01:11.371Z,100472.56
2022-12-11T10:03:53.255Z,100472.34
2022-12-11T10:06:26.276Z,100469.28
2022-12-11T10:09:26.142Z,100471.41
2022-12-11T10:12:19.655Z,100469.94
2022-12-11T10:19:31.616Z,100469.28
2022-12-11T10:22:11.216Z,100478.06
2022-12-11T10:31:12.451Z,100462.47
2022-12-11T10:34:13.250Z,100458.59
2022-12-11T10:36:43.071Z,100460.75
2022-12-11T10:39:18.536Z,100452.25
2022-12-11T10:41:53.782Z,100454.56
2022-12-11T10:44:26.792Z,100455.69
2022-12-11T10:47:02.885Z,100453.22
2022-12-11T10:49:33.141Z,100453.16
2022-12-11T10:52:07.065Z,100451.53
2022-12-11T10:54:38.276Z,100442.06
2022-12-11T10:57:07.972Z,100437.16
2022-12-11T10:59:44.668Z,100429.16
2022-12-11T11:02:38.144Z,100436.28
2022-12-11T11:05:17.276Z,100428.47
2022-12-11T11:07:44.160Z,100430.44
2022-12-11T11:10:11.053Z,100428.16
2022-12-11T11:12:48.109Z,100434.75
2022-12-11T11:15:20.421Z,100428.13
2022-12-11T11:17:54.954Z,100424.03
2022-12-11T11:20:29.379Z,100427.41
2022-12-11T11:22:58.164Z,100424.47
2022-12-11T11:25:27.296Z,100428.94
2022-12-11T11:28:08.458Z,100422.34
2022-12-11T11:30:37.407Z,100415.28
2022-12-11T11:33:24.608Z,100417.31
2022-12-11T11:36:02.579Z,100413.94
2022-12-11T11:38:53.973Z,100416.78
2022-12-11T11:41:25.676Z,100417.16
2022-12-11T11:43:55.783Z,100409.38
2022-12-11T11:46:22.522Z,100411.63
2022-12-11T11:49:04.554Z,100408.94
2022-12-11T11:51:36.669Z,100406.34
2022-12-11T11:54:32.350Z,100410.31
2022-12-11T11:57:00.590Z,100410.38
2022-12-11T11:59:35.053Z,100400.03
2022-12-11T12:02:02.483Z,100400.03
2022-12-11T12:04:37.626Z,100401.94
2022-12-11T12:07:20.050Z,100398.28
2022-12-11T12:10:08.276Z,100400.50
2022-12-11T12:12:58.848Z,100402.34
2022-12-11T12:15:34.193Z,100411.16
2022-12-11T12:18:14.686Z,100401.25
2022-12-11T12:21:09.339Z,100404.13
2022-12-11T12:24:04.904Z,100397.81
2022-12-11T12:26:35.204Z,100391.34
2022-12-11T12:29:40.723Z,100394.47
2022-12-11T12:32:37.921Z,100384.31
2022-12-11T12:35:33.587Z,100389.22
2022-12-11T12:38:18.731Z,100374.06
2022-12-11T12:41:15.731Z,100377.19
2022-12-11T12:44:12.979Z,100373.47
2022-12-11T12:47:02.218Z,100373.69
2022-12-11T12:49:50.217Z,100374.88
2022-12-11T12:52:36.593Z,100370.41
2022-12-11T12:55:26.638Z,100369.03
2022-12-11T12:58:08.644Z,100370.22
2022-12-11T13:00:41.279Z,100365.34
2022-12-11T13:03:14.599Z,100369.31
2022-12-11T13:05:44.352Z,100374.72
2022-12-11T13:08:22.833Z,100371.38
2022-12-11T13:11:10.654Z,100372.34
2022-12-11T13:13:41.358Z,100367.53
2022-12-11T13:16:17.543Z,100376.34
2022-12-11T13:19:04.640Z,100370.31
2022-12-11T13:21:38.338Z,100365.22
2022-12-11T13:24:17.937Z,100375.41
2022-12-11T13:26:45.189Z,100372.22
2022-12-11T13:29:37.572Z,100370.00
2022-12-11T13:32:10.521Z,100369.50
2022-12-11T13:34:40.509Z,100368.25
2022-12-11T13:37:31.912Z,100369.28
2022-12-11T13:40:00.609Z,100378.13
2022-12-11T13:42:38.626Z,100364.88
2022-12-11T13:45:10.103Z,100365.88
2022-12-11T13:47:38.230Z,100375.84
2022-12-11T13:50:30.182Z,100372.56
2022-12-11T13:53:02.227Z,100376.44
2022-12-11T13:55:34.824Z,100378.81
2022-12-11T13:58:02.299Z,100383.19
2022-12-11T14:00:44.187Z,100379.72
2022-12-11T14:03:22.216Z,100386.50
2022-12-11T14:05:56.625Z,100376.81
2022-12-11T14:08:38.699Z,100375.47
2022-12-11T14:11:06.336Z,100373.25
2022-12-11T14:13:39.629Z,100379.34
2022-12-11T14:16:07.065Z,100389.28
2022-12-11T14:18:36.022Z,100387.34
2022-12-11T14:21:05.997Z,100391.19
2022-12-11T14:23:35.444Z,100389.34
2022-12-11T14:26:17.986Z,100387.75
2022-12-11T14:29:26.679Z,100385.06
2022-12-11T14:32:08.875Z,100392.88
2022-12-11T14:34:44.800Z,100387.56
2022-12-11T14:37:14.578Z,100378.41
2022-12-11T14:39:48.722Z,100383.81
2022-12-11T14:42:43.630Z,100391.31
2022-12-11T14:45:29.848Z,100392.00
2022-12-11T14:48:10.316Z,100402.09
2022-12-11T14:50:48.745Z,100403.03
2022-12-11T14:53:40.187Z,100409.28
2022-12-11T14:56:09.285Z,100403.03
2022-12-11T14:58:58.291Z,100406.78
2022-12-11T15:01:29.079Z,100410.03
2022-12-11T15:04:16.917Z,100413.75
2022-12-11T15:06:48.825Z,100413.19
2022-12-11T15:09:25.052Z,100414.66
2022-12-11T15:11:52.570Z,100416.34
2022-12-11T15:14:20.583Z,100414.00
2022-12-11T15:16:48.385Z,100416.72
2022-12-11T15:19:28.224Z,100410.50
2022-12-11T15:22:01.976Z,100418.72
2022-12-11T15:24:34.016Z,100418.22
2022-12-11T15:27:01.291Z,100412.66
2022-12-11T15:29:38.433Z,100419.63
2022-12-11T15:32:08.413Z,100425.78
2022-12-11T15:34:43.206Z,100420.16
2022-12-11T15:37:32.664Z,100418.22
2022-12-11T15:40:01.435Z,100417.69
2022-12-11T15:42:36.072Z,100424.84
2022-12-11T15:45:06.134Z,100416.63
2022-12-11T15:47:33.629Z,100421.72
2022-12-11T15:50:07.522Z,100420.75
2022-12-11T15:52:34.683Z,100419.47
2022-12-11T15:55:03.408Z,100421.41
2022-12-11T15:57:33.704Z,100417.59
2022-12-11T16:00:01.334Z,100418.19
2022-12-11T16:02:36.333Z,100416.56
2022-12-11T16:05:10.053Z,100415.53
2022-12-11T16:07:38.690Z,100424.22
2022-12-11T16:10:11.733Z,100419.91
2022-12-11T16:12:42.312Z,100416.44
2022-12-11T16:18:15.425Z,100418.94
2022-12-11T16:20:51.310Z,100422.53
2022-12-11T16:23:34.570Z,100424.16
2022-12-11T16:26:18.201Z,100414.56
2022-12-11T16:29:06.802Z,100417.72
2022-12-11T16:31:38.291Z,100420.13
2022-12-11T16:34:10.936Z,100417.00
2022-12-11T16:36:38.672Z,100418.25
2022-12-11T16:39:06.182Z,100421.56
2022-12-11T16:41:42.392Z,100417.59
2022-12-11T16:47:09.854Z,100417.81
2022-12-11T16:49:40.709Z,100417.97
2022-12-11T16:52:43.908Z,100414.84
2022-12-11T16:55:14.276Z,100413.94
2022-12-11T16:57:59.137Z,100407.53
2022-12-11T17:00:29.356Z,100415.63
2022-12-11T17:03:02.784Z,100415.94
2022-12-11T17:06:06.815Z,100416.25
2022-12-11T17:09:24.061Z,100412.25
2022-12-11T17:11:53.622Z,100420.13
2022-12-11T17:14:28.309Z,100416.25
2022-12-11T17:17:02.293Z,100414.56
2022-12-11T17:19:29.424Z,100410.13
2022-12-11T17:21:57.010Z,100410.66
2022-12-11T17:24:30.401Z,100406.53
2022-12-11T17:27:02.687Z,100405.34
2022-12-11T17:30:07.056Z,100414.38
2022-12-11T17:33:12.402Z,100410.59
2022-12-11T17:35:58.106Z,100400.00
2022-12-11T17:41:35.731Z,100414.47
2022-12-11T17:44:06.826Z,100414.44
2022-12-11T17:46:46.087Z,100413.63
2022-12-11T17:49:14.183Z,100414.91
2022-12-11T17:51:41.066Z,100414.34
2022-12-11T17:54:11.572Z,100414.69
2022-12-11T17:56:38.895Z,100418.78
2022-12-11T17:59:05.989Z,100412.13
2022-12-11T18:01:33.353Z,100411.97
2022-12-11T18:04:04.197Z,100416.19
2022-12-11T18:06:34.554Z,100410.72
2022-12-11T18:09:02.173Z,100410.34
2022-12-11T18:11:29.115Z,100406.75
2022-12-11T18:13:59.519Z,100408.94
2022-12-11T18:16:34.319Z,100406.94
2022-12-11T18:19:05.617Z,100406.75
2022-12-11T18:21:40.595Z,100412.75
2022-12-11T18:24:19.771Z,100410.09
2022-12-11T18:26:48.835Z,100415.34
2022-12-11T18:29:40.348Z,100421.50
2022-12-11T18:32:23.122Z,100413.38
2022-12-11T18:34:51.109Z,100417.56
2022-12-11T18:37:21.127Z,100413.50
2022-12-11T18:39:58.531Z,100415.44
2022-12-11T18:42:34.688Z,100404.88
2022-12-11T18:45:01.988Z,100405.50
2022-12-11T18:47:32.237Z,100409.59
2022-12-11T18:50:07.088Z,100408.81
2022-12-11T18:52:57.206Z,100412.09
2022-12-11T18:55:24.814Z,100404.25
2022-12-11T18:57:53.772Z,100416.56
2022-12-11T19:00:24.746Z,100405.13
2022-12-11T19:02:54.159Z,100405.41
2022-12-11T19:05:23.556Z,100403.44
2022-12-11T19:07:50.575Z,100412.41
2022-12-11T19:10:18.539Z,100413.28
2022-12-11T19:12:47.886Z,100413.13
2022-12-11T19:17:56.447Z,100405.75
2022-12-11T19:20:48.437Z,100411.31
2022-12-11T19:23:19.072Z,100408.91
2022-12-11T19:25:54.593Z,100414.78
2022-12-11T19:28:30.286Z,100412.97
2022-12-11T19:31:01.375Z,100415.31
2022-12-11T19:33:36.779Z,100410.25
2022-12-11T19:36:23.240Z,100402.69
2022-12-11T19:39:01.244Z,100394.09
2022-12-11T19:44:39.889Z,100402.88
2022-12-11T19:47:10.431Z,100411.16
2022-12-11T19:49:40.528Z,100404.63
2022-12-11T19:52:13.859Z,100412.81
2022-12-11T19:54:43.667Z,100406.13
2022-12-11T19:57:13.672Z,100418.06
2022-12-11T19:59:43.613Z,100420.28
2022-12-11T20:02:20.807Z,100415.47
2022-12-11T20:04:48.389Z,100412.53
2022-12-11T20:07:15.472Z,100415.06
2022-12-11T20:09:43.686Z,100408.59
2022-12-11T20:12:13.698Z,100403.50
2022-12-11T20:14:41.091Z,100404.53
2022-12-11T20:17:12.320Z,100409.50
2022-12-11T20:19:40.187Z,100412.13
2022-12-11T20:22:10.833Z,100414.81
2022-12-11T20:24:38.167Z,100416.50
2022-12-11T20:27:09.696Z,100412.38
2022-12-11T20:29:37.992Z,100411.31
2022-12-11T20:34:46.638Z,100406.50
2022-12-11T20:37:14.143Z,100408.09
2022-12-11T20:39:50.593Z,100405.81
2022-12-11T20:42:21.292Z,100395.25
2022-12-11T20:44:49.900Z,100394.72
2022-12-11T20:47:21.529Z,100402.66
2022-12-11T20:50:30.261Z,100391.22
2022-12-11T20:57:16.420Z,100388.47
2022-12-11T20:59:45.268Z,100391.91
2022-12-11T21:02:13.413Z,100388.81
2022-12-11T21:05:30.206Z,100391.88
2022-12-11T21:07:57.559Z,100392.25
2022-12-11T21:11:05.363Z,100397.19
2022-12-11T21:13:37.671Z,100387.78
2022-12-11T21:16:16.720Z,100389.53
2022-12-11T21:18:44.396Z,100396.66
2022-12-11T21:21:11.761Z,100398.00
2022-12-11T21:23:39.173Z,100390.91
2022-12-11T21:26:06.607Z,100389.88
2022-12-11T21:28:37.650Z,100390.34
2022-12-11T21:31:07.788Z,100397.66
2022-12-11T21:33:35.379Z,100401.34
2022-12-11T21:36:06.528Z,100398.69
2022-12-11T21:38:33.908Z,100405.22
2022-12-11T21:41:22.059Z,100405.97
2022-12-11T21:44:56.530Z,100405.28
2022-12-11T21:46:58.291Z,100401.63
2022-12-11T21:53:41.632Z,100409.13
2022-12-11T21:56:10.401Z,100404.50
2022-12-11T21:58:39.508Z,100413.13
2022-12-11T22:01:10.531Z,100417.97
2022-12-11T22:03:40.944Z,100410.00
2022-12-11T22:06:11.368Z,100412.16
2022-12-11T22:08:43.340Z,100426.56
2022-12-11T22:11:16.267Z,100424.47
2022-12-11T22:13:45.116Z,100418.72
2022-12-11T22:16:15.211Z,100423.97
2022-12-11T22:18:42.712Z,100422.81
2022-12-11T22:21:10.144Z,100421.56
2022-12-11T22:23:46.808Z,100423.34
2022-12-11T22:26:20.584Z,100427.38
2022-12-11T22:28:47.941Z,100422.00
2022-12-11T22:31:17.265Z,100429.91
2022-12-11T22:33:44.291Z,100434.94
2022-12-11T22:36:13.999Z,100426.63
2022-12-11T22:38:41.284Z,100434.63
2022-12-11T22:41:22.148Z,100431.84
2022-12-11T22:43:55.655Z,100438.69
2022-12-11T22:46:25.564Z,100438.75
2022-12-11T22:48:52.716Z,100438.78
2022-12-11T22:51:20.231Z,100435.44
2022-12-11T22:53:51.405Z,100434.38
2022-12-11T22:56:18.496Z,100433.38
2022-12-11T22:58:46.071Z,100432.34
2022-12-11T23:01:17.869Z,100423.53
2022-12-11T23:03:46.205Z,100438.19
2022-12-11T23:06:15.467Z,100426.97
2022-12-11T23:08:43.399Z,100432.09
2022-12-11T23:11:20.406Z,100432.19
2022-12-11T23:14:09.737Z,100423.09
2022-12-11T23:16:40.259Z,100422.97
2022-12-11T23:19:10.714Z,100424.13
2022-12-11T23:21:41.308Z,100417.75
2022-12-11T23:24:11.528Z,100425.78
2022-12-11T23:26:41.649Z,100424.97
2022-12-11T23:29:08.892Z,100432.53
2022-12-11T23:31:49.491Z,100428.16
2022-12-11T23:34:21.654Z,100423.50
2022-12-11T23:36:51.276Z,100438.56
2022-12-11T23:39:18.810Z,100432.59
2022-12-11T23:41:54.762Z,100436.78
2022-12-11T23:44:21.700Z,100433.19
2022-12-11T23:46:50.922Z,100435.50
2022-12-11T23:49:19.078Z,100442.41
2022-12-11T23:51:45.924Z,100437.81
2022-12-11T23:54:12.836Z,100428.31
2022-12-11T23:56:39.686Z,100438.03
2022-12-11T23:59:09.449Z,100441.69
